Petersburgh, New York
Current Conditions -  °F | °C
As of 4:52 AM on Monday 20 Oct 2014 (Local Time) from KAQW Reporting Station
Clear Clear  
Wind Chill: 25°   Ceiling: Unl
Heat Index: 31°   Visibility: 10mi
Dew Point: 27°   Wind: 6mph
Humidity: 85%   Direction: 270°W
Pressure: 30.02"   Gusts: NA
Location:  42.7192°N, 73.3641°W
Report Text: KAQW 200852Z AUTO 27005KT 10SM CLR M01/M03 A3002 RMK AO2 SLP172 T10061028 55001
Loading
Personal Weather Stations






























Interactive Weather Map New forecast layout! Learn more

10-Day Weather Forecast

Advertisements
Track Severe Weather on mobile